sensor_id;sensor_type;location;lat;lon;timestamp;pressure;altitude;pressure_sealevel;temperature;humidity
24031;BME280;12240;51.142;22.486;2023-04-08T00:02:21;99864.19;;;0.36;100.00
24031;BME280;12240;51.142;22.486;2023-04-08T00:04:50;99863.44;;;0.34;100.00
24031;BME280;12240;51.142;22.486;2023-04-08T00:07:18;99864.34;;;0.33;100.00
24031;BME280;12240;51.142;22.486;2023-04-08T00:09:48;99864.34;;;0.33;100.00
24031;BME280;12240;51.142;22.486;2023-04-08T00:12:17;99864.34;;;0.33;100.00
24031;BME280;12240;51.142;22.486;2023-04-08T00:14:45;99869.75;;;0.30;100.00
24031;BME280;12240;51.142;22.486;2023-04-08T00:17:13;99870.88;;;0.25;100.00
24031;BME280;12240;51.142;22.486;2023-04-08T00:19:42;99874.03;;;0.31;100.00
24031;BME280;12240;51.142;22.486;2023-04-08T00:22:10;99876.28;;;0.39;100.00
24031;BME280;12240;51.142;22.486;2023-04-08T00:24:40;99869.50;;;0.35;100.00
24031;BME280;12240;51.142;22.486;2023-04-08T00:27:08;99874.13;;;0.30;100.00
24031;BME280;12240;51.142;22.486;2023-04-08T00:29:39;99872.53;;;0.27;100.00
24031;BME280;12240;51.142;22.486;2023-04-08T00:32:07;99876.44;;;0.19;100.00
24031;BME280;12240;51.142;22.486;2023-04-08T00:34:35;99882.13;;;0.10;100.00
24031;BME280;12240;51.142;22.486;2023-04-08T00:37:05;99879.75;;;0.05;100.00
24031;BME280;12240;51.142;22.486;2023-04-08T00:39:33;99887.81;;;0.00;100.00
24031;BME280;12240;51.142;22.486;2023-04-08T00:42:01;99885.19;;;0.00;100.00
24031;BME280;12240;51.142;22.486;2023-04-08T00:44:29;99880.56;;;0.06;100.00
24031;BME280;12240;51.142;22.486;2023-04-08T00:46:58;99875.22;;;0.09;100.00
24031;BME280;12240;51.142;22.486;2023-04-08T00:49:26;99884.44;;;0.16;100.00
24031;BME280;12240;51.142;22.486;2023-04-08T00:51:54;99887.75;;;0.19;100.00
24031;BME280;12240;51.142;22.486;2023-04-08T00:54:23;99881.38;;;0.25;100.00
24031;BME280;12240;51.142;22.486;2023-04-08T00:56:51;99886.38;;;0.29;100.00
24031;BME280;12240;51.142;22.486;2023-04-08T00:59:20;99882.66;;;0.33;100.00
24031;BME280;12240;51.142;22.486;2023-04-08T01:05:06;99894.38;;;0.43;100.00
24031;BME280;12240;51.142;22.486;2023-04-08T01:07:48;99897.16;;;0.40;100.00
24031;BME280;12240;51.142;22.486;2023-04-08T01:10:30;99895.16;;;0.45;100.00
24031;BME280;12240;51.142;22.486;2023-04-08T01:13:07;99893.47;;;0.44;100.00
24031;BME280;12240;51.142;22.486;2023-04-08T01:15:38;99893.41;;;0.46;100.00
24031;BME280;12240;51.142;22.486;2023-04-08T01:18:13;99892.38;;;0.48;100.00
24031;BME280;12240;51.142;22.486;2023-04-08T01:20:42;99897.69;;;0.47;100.00
24031;BME280;12240;51.142;22.486;2023-04-08T01:23:45;99897.56;;;0.50;100.00
24031;BME280;12240;51.142;22.486;2023-04-08T01:26:23;99900.41;;;0.45;100.00
24031;BME280;12240;51.142;22.486;2023-04-08T01:28:56;99897.84;;;0.44;100.00
24031;BME280;12240;51.142;22.486;2023-04-08T01:31:25;99900.41;;;0.45;100.00
24031;BME280;12240;51.142;22.486;2023-04-08T01:33:55;99906.88;;;0.55;100.00
24031;BME280;12240;51.142;22.486;2023-04-08T01:36:25;99906.16;;;0.52;100.00
24031;BME280;12240;51.142;22.486;2023-04-08T01:38:53;99908.09;;;0.48;100.00
24031;BME280;12240;51.142;22.486;2023-04-08T01:41:21;99901.78;;;0.52;100.00
24031;BME280;12240;51.142;22.486;2023-04-08T01:43:51;99900.38;;;0.62;100.00
24031;BME280;12240;51.142;22.486;2023-04-08T01:46:21;99897.63;;;0.65;100.00
24031;BME280;12240;51.142;22.486;2023-04-08T01:48:49;99899.41;;;0.65;100.00
24031;BME280;12240;51.142;22.486;2023-04-08T01:51:19;99907.97;;;0.68;100.00
24031;BME280;12240;51.142;22.486;2023-04-08T01:53:48;99903.78;;;0.64;100.00
24031;BME280;12240;51.142;22.486;2023-04-08T01:56:21;99901.16;;;0.64;100.00
24031;BME280;12240;51.142;22.486;2023-04-08T01:58:51;99905.88;;;0.58;100.00
24031;BME280;12240;51.142;22.486;2023-04-08T02:01:22;99915.34;;;0.60;100.00
24031;BME280;12240;51.142;22.486;2023-04-08T02:03:53;99911.97;;;0.58;100.00
24031;BME280;12240;51.142;22.486;2023-04-08T02:06:25;99905.88;;;0.58;100.00
24031;BME280;12240;51.142;22.486;2023-04-08T02:08:56;99913.13;;;0.53;100.00
24031;BME280;12240;51.142;22.486;2023-04-08T02:11:24;99907.03;;;0.52;100.00
24031;BME280;12240;51.142;22.486;2023-04-08T02:13:53;99912.59;;;0.46;100.00
24031;BME280;12240;51.142;22.486;2023-04-08T02:16:55;99914.28;;;0.47;100.00
24031;BME280;12240;51.142;22.486;2023-04-08T02:19:31;99917.91;;;0.45;100.00
24031;BME280;12240;51.142;22.486;2023-04-08T02:22:18;99926.91;;;0.39;100.00
24031;BME280;12240;51.142;22.486;2023-04-08T02:24:50;99919.84;;;0.41;100.00
24031;BME280;12240;51.142;22.486;2023-04-08T02:27:20;99918.03;;;0.42;100.00
24031;BME280;12240;51.142;22.486;2023-04-08T02:29:50;99912.88;;;0.40;100.00
24031;BME280;12240;51.142;22.486;2023-04-08T02:32:23;99910.41;;;0.37;100.00
24031;BME280;12240;51.142;22.486;2023-04-08T02:34:53;99919.84;;;0.41;100.00
24031;BME280;12240;51.142;22.486;2023-04-08T02:37:23;99910.88;;;0.45;100.00
24031;BME280;12240;51.142;22.486;2023-04-08T02:39:52;99917.06;;;0.44;100.00
24031;BME280;12240;51.142;22.486;2023-04-08T02:42:20;99914.44;;;0.44;100.00
24031;BME280;12240;51.142;22.486;2023-04-08T02:44:48;99915.50;;;0.40;100.00
24031;BME280;12240;51.142;22.486;2023-04-08T02:47:16;99925.19;;;0.38;100.00
24031;BME280;12240;51.142;22.486;2023-04-08T02:49:44;99922.50;;;0.40;100.00
24031;BME280;12240;51.142;22.486;2023-04-08T02:52:13;99918.44;;;0.34;100.00
24031;BME280;12240;51.142;22.486;2023-04-08T02:54:41;99918.53;;;0.33;100.00
24031;BME280;12240;51.142;22.486;2023-04-08T02:57:09;99922.97;;;0.31;100.00
24031;BME280;12240;51.142;22.486;2023-04-08T02:59:37;99917.59;;;0.34;100.00
24031;BME280;12240;51.142;22.486;2023-04-08T03:02:05;99920.28;;;0.32;100.00
24031;BME280;12240;51.142;22.486;2023-04-08T03:04:34;99915.31;;;0.26;100.00
24031;BME280;12240;51.142;22.486;2023-04-08T03:07:03;99913.66;;;0.25;100.00
24031;BME280;12240;51.142;22.486;2023-04-08T03:09:33;99905.31;;;0.17;100.00
24031;BME280;12240;51.142;22.486;2023-04-08T03:12:01;99909.78;;;0.15;100.00
24031;BME280;12240;51.142;22.486;2023-04-08T03:14:29;99918.41;;;0.17;100.00
24031;BME280;12240;51.142;22.486;2023-04-08T03:16:57;99914.88;;;0.18;100.00
24031;BME280;12240;51.142;22.486;2023-04-08T03:19:27;99920.03;;;0.20;100.00
24031;BME280;12240;51.142;22.486;2023-04-08T03:21:56;99919.31;;;0.16;100.00
24031;BME280;12240;51.142;22.486;2023-04-08T03:24:24;99922.03;;;0.15;100.00
24031;BME280;12240;51.142;22.486;2023-04-08T03:26:52;99917.72;;;0.14;100.00
24031;BME280;12240;51.142;22.486;2023-04-08T03:29:20;99930.13;;;0.10;100.00
24031;BME280;12240;51.142;22.486;2023-04-08T03:31:48;99925.69;;;0.11;100.00
24031;BME280;12240;51.142;22.486;2023-04-08T03:34:17;99932.66;;;0.12;100.00
24031;BME280;12240;51.142;22.486;2023-04-08T03:36:46;99940.44;;;0.13;100.00
24031;BME280;12240;51.142;22.486;2023-04-08T03:39:14;99943.13;;;0.12;100.00
24031;BME280;12240;51.142;22.486;2023-04-08T03:41:42;99942.00;;;0.17;100.00
24031;BME280;12240;51.142;22.486;2023-04-08T03:44:10;99941.84;;;0.20;100.00
24031;BME280;12240;51.142;22.486;2023-04-08T03:46:39;99949.69;;;0.20;100.00
24031;BME280;12240;51.142;22.486;2023-04-08T03:49:07;99947.94;;;0.21;100.00
24031;BME280;12240;51.142;22.486;2023-04-08T03:51:35;99946.75;;;0.26;100.00
24031;BME280;12240;51.142;22.486;2023-04-08T03:54:03;99954.69;;;0.25;100.00
24031;BME280;12240;51.142;22.486;2023-04-08T03:56:31;99960.00;;;0.23;100.00
24031;BME280;12240;51.142;22.486;2023-04-08T03:58:59;99963.41;;;0.25;100.00
24031;BME280;12240;51.142;22.486;2023-04-08T04:01:27;99969.44;;;0.27;100.00
24031;BME280;12240;51.142;22.486;2023-04-08T04:03:58;99965.66;;;0.33;100.00
24031;BME280;12240;51.142;22.486;2023-04-08T04:06:27;99967.69;;;0.45;100.00
24031;BME280;12240;51.142;22.486;2023-04-08T04:08:55;99963.00;;;0.51;100.00
24031;BME280;12240;51.142;22.486;2023-04-08T04:11:23;99954.72;;;0.59;100.00
24031;BME280;12240;51.142;22.486;2023-04-08T04:13:51;99966.44;;;0.69;100.00
24031;BME280;12240;51.142;22.486;2023-04-08T04:16:19;99968.00;;;0.73;100.00
24031;BME280;12240;51.142;22.486;2023-04-08T04:18:48;99973.94;;;0.76;100.00
24031;BME280;12240;51.142;22.486;2023-04-08T04:21:17;99970.25;;;0.80;100.00
24031;BME280;12240;51.142;22.486;2023-04-08T04:23:45;99972.53;;;0.86;100.00
24031;BME280;12240;51.142;22.486;2023-04-08T04:26:13;99981.97;;;0.90;100.00
24031;BME280;12240;51.142;22.486;2023-04-08T04:28:42;99978.19;;;0.96;100.00
24031;BME280;12240;51.142;22.486;2023-04-08T04:31:22;99992.59;;;1.04;100.00
24031;BME280;12240;51.142;22.486;2023-04-08T04:33:54;99989.72;;;1.09;100.00
24031;BME280;12240;51.142;22.486;2023-04-08T04:36:22;99990.41;;;1.12;100.00
24031;BME280;12240;51.142;22.486;2023-04-08T04:38:50;99990.34;;;1.14;100.00
24031;BME280;12240;51.142;22.486;2023-04-08T04:41:22;99995.50;;;1.15;100.00
24031;BME280;12240;51.142;22.486;2023-04-08T04:43:50;99996.19;;;1.19;100.00
24031;BME280;12240;51.142;22.486;2023-04-08T04:46:19;100001.06;;;1.27;100.00
24031;BME280;12240;51.142;22.486;2023-04-08T04:48:47;100006.13;;;1.30;100.00
24031;BME280;12240;51.142;22.486;2023-04-08T04:51:16;100012.94;;;1.34;100.00
24031;BME280;12240;51.142;22.486;2023-04-08T04:53:44;100006.88;;;1.49;100.00
24031;BME280;12240;51.142;22.486;2023-04-08T04:56:12;100014.44;;;1.55;100.00
24031;BME280;12240;51.142;22.486;2023-04-08T04:58:40;100015.72;;;1.63;100.00
24031;BME280;12240;51.142;22.486;2023-04-08T05:01:09;100018.78;;;1.71;100.00
24031;BME280;12240;51.142;22.486;2023-04-08T05:03:37;100021.94;;;1.78;100.00
24031;BME280;12240;51.142;22.486;2023-04-08T05:06:05;100026.19;;;1.80;100.00
24031;BME280;12240;51.142;22.486;2023-04-08T05:08:33;100022.97;;;1.91;100.00
24031;BME280;12240;51.142;22.486;2023-04-08T05:11:02;100027.88;;;1.97;100.00
24031;BME280;12240;51.142;22.486;2023-04-08T05:13:31;100037.44;;;1.98;100.00
24031;BME280;12240;51.142;22.486;2023-04-08T05:16:00;100028.31;;;2.05;100.00
24031;BME280;12240;51.142;22.486;2023-04-08T05:18:29;100041.22;;;2.09;100.00
24031;BME280;12240;51.142;22.486;2023-04-08T05:20:58;100039.00;;;2.17;100.00
24031;BME280;12240;51.142;22.486;2023-04-08T05:23:26;100046.13;;;2.31;100.00
24031;BME280;12240;51.142;22.486;2023-04-08T05:25:55;100036.66;;;2.44;100.00
24031;BME280;12240;51.142;22.486;2023-04-08T05:28:23;100044.75;;;2.55;100.00
24031;BME280;12240;51.142;22.486;2023-04-08T05:30:52;100049.31;;;2.67;100.00
24031;BME280;12240;51.142;22.486;2023-04-08T05:33:21;100056.34;;;2.82;100.00
24031;BME280;12240;51.142;22.486;2023-04-08T05:35:50;100056.19;;;2.85;100.00
24031;BME280;12240;51.142;22.486;2023-04-08T05:38:18;100057.16;;;2.98;100.00
24031;BME280;12240;51.142;22.486;2023-04-08T05:40:46;100063.78;;;3.05;100.00
24031;BME280;12240;51.142;22.486;2023-04-08T05:43:15;100058.75;;;3.16;100.00
24031;BME280;12240;51.142;22.486;2023-04-08T05:45:43;100058.94;;;3.27;100.00
24031;BME280;12240;51.142;22.486;2023-04-08T05:48:11;100059.94;;;3.40;100.00
24031;BME280;12240;51.142;22.486;2023-04-08T05:50:39;100063.50;;;3.53;100.00
24031;BME280;12240;51.142;22.486;2023-04-08T05:53:09;100061.38;;;3.74;100.00
24031;BME280;12240;51.142;22.486;2023-04-08T05:55:38;100060.22;;;3.92;100.00
24031;BME280;12240;51.142;22.486;2023-04-08T05:58:06;100061.66;;;4.12;100.00
24031;BME280;12240;51.142;22.486;2023-04-08T06:00:34;100068.50;;;4.28;100.00
24031;BME280;12240;51.142;22.486;2023-04-08T06:03:03;100068.00;;;4.50;100.00
24031;BME280;12240;51.142;22.486;2023-04-08T06:05:32;100069.03;;;4.88;100.00
24031;BME280;12240;51.142;22.486;2023-04-08T06:08:00;100063.50;;;5.18;100.00
24031;BME280;12240;51.142;22.486;2023-04-08T06:10:28;100057.28;;;5.19;100.00
24031;BME280;12240;51.142;22.486;2023-04-08T06:12:57;100062.59;;;5.31;100.00
24031;BME280;12240;51.142;22.486;2023-04-08T06:15:25;100062.94;;;5.52;100.00
24031;BME280;12240;51.142;22.486;2023-04-08T06:17:54;100066.09;;;5.44;100.00
24031;BME280;12240;51.142;22.486;2023-04-08T06:20:22;100055.22;;;5.61;100.00
24031;BME280;12240;51.142;22.486;2023-04-08T06:22:50;100061.28;;;5.88;100.00
24031;BME280;12240;51.142;22.486;2023-04-08T06:25:19;100057.66;;;6.02;100.00
24031;BME280;12240;51.142;22.486;2023-04-08T06:27:47;100052.47;;;6.26;100.00
24031;BME280;12240;51.142;22.486;2023-04-08T06:30:15;100060.06;;;6.43;100.00
24031;BME280;12240;51.142;22.486;2023-04-08T06:32:44;100055.31;;;6.59;100.00
24031;BME280;12240;51.142;22.486;2023-04-08T06:35:14;100056.56;;;6.66;100.00
24031;BME280;12240;51.142;22.486;2023-04-08T06:37:42;100051.81;;;6.94;100.00
24031;BME280;12240;51.142;22.486;2023-04-08T06:40:11;100051.59;;;7.08;100.00
24031;BME280;12240;51.142;22.486;2023-04-08T06:42:40;100043.53;;;7.34;100.00
24031;BME280;12240;51.142;22.486;2023-04-08T06:45:28;100041.63;;;7.36;100.00
24031;BME280;12240;51.142;22.486;2023-04-08T06:47:56;100043.94;;;7.62;100.00
24031;BME280;12240;51.142;22.486;2023-04-08T06:50:24;100038.22;;;7.90;100.00
24031;BME280;12240;51.142;22.486;2023-04-08T06:52:53;100041.59;;;8.03;100.00
24031;BME280;12240;51.142;22.486;2023-04-08T06:55:22;100029.41;;;8.12;100.00
24031;BME280;12240;51.142;22.486;2023-04-08T06:57:50;100031.22;;;8.45;100.00
24031;BME280;12240;51.142;22.486;2023-04-08T07:00:19;100032.06;;;8.56;100.00
24031;BME280;12240;51.142;22.486;2023-04-08T07:02:47;100025.50;;;9.03;100.00
24031;BME280;12240;51.142;22.486;2023-04-08T07:05:16;100011.56;;;9.21;100.00
24031;BME280;12240;51.142;22.486;2023-04-08T07:07:44;100007.84;;;9.33;100.00
24031;BME280;12240;51.142;22.486;2023-04-08T07:10:13;100001.63;;;9.44;100.00
24031;BME280;12240;51.142;22.486;2023-04-08T07:12:41;99996.81;;;9.17;100.00
24031;BME280;12240;51.142;22.486;2023-04-08T07:15:11;99998.00;;;9.24;100.00
24031;BME280;12240;51.142;22.486;2023-04-08T07:17:39;99987.63;;;9.21;100.00
24031;BME280;12240;51.142;22.486;2023-04-08T07:20:08;99986.06;;;9.39;100.00
24031;BME280;12240;51.142;22.486;2023-04-08T07:22:37;99987.69;;;9.31;100.00
24031;BME280;12240;51.142;22.486;2023-04-08T07:25:05;99982.13;;;9.85;100.00
24031;BME280;12240;51.142;22.486;2023-04-08T07:27:34;99979.94;;;9.99;100.00
24031;BME280;12240;51.142;22.486;2023-04-08T07:30:04;99973.34;;;9.94;100.00
24031;BME280;12240;51.142;22.486;2023-04-08T07:32:33;99968.72;;;9.96;100.00
24031;BME280;12240;51.142;22.486;2023-04-08T07:35:02;99966.59;;;10.20;100.00
24031;BME280;12240;51.142;22.486;2023-04-08T07:37:30;99970.56;;;10.35;100.00
24031;BME280;12240;51.142;22.486;2023-04-08T07:39:59;99959.06;;;10.34;100.00
24031;BME280;12240;51.142;22.486;2023-04-08T07:42:28;99966.69;;;10.48;100.00
24031;BME280;12240;51.142;22.486;2023-04-08T07:44:57;99964.16;;;10.47;100.00
24031;BME280;12240;51.142;22.486;2023-04-08T07:47:25;99946.38;;;10.76;100.00
24031;BME280;12240;51.142;22.486;2023-04-08T07:49:54;99954.53;;;10.75;100.00
24031;BME280;12240;51.142;22.486;2023-04-08T07:52:23;99944.97;;;10.63;100.00
24031;BME280;12240;51.142;22.486;2023-04-08T07:54:51;99948.78;;;10.70;100.00
24031;BME280;12240;51.142;22.486;2023-04-08T07:57:19;99954.56;;;11.59;100.00
24031;BME280;12240;51.142;22.486;2023-04-08T07:59:48;99944.47;;;11.53;100.00
24031;BME280;12240;51.142;22.486;2023-04-08T08:02:16;99955.41;;;11.69;100.00
24031;BME280;12240;51.142;22.486;2023-04-08T08:04:45;99955.59;;;11.85;100.00
24031;BME280;12240;51.142;22.486;2023-04-08T08:07:16;99940.22;;;11.60;100.00
24031;BME280;12240;51.142;22.486;2023-04-08T08:09:44;99949.47;;;11.75;100.00
24031;BME280;12240;51.142;22.486;2023-04-08T08:12:12;99954.16;;;12.27;100.00
24031;BME280;12240;51.142;22.486;2023-04-08T08:14:41;99957.91;;;12.34;100.00
24031;BME280;12240;51.142;22.486;2023-04-08T08:17:09;99962.72;;;12.04;100.00
24031;BME280;12240;51.142;22.486;2023-04-08T08:19:37;99962.94;;;12.37;100.00
24031;BME280;12240;51.142;22.486;2023-04-08T08:22:06;99957.53;;;12.29;100.00
24031;BME280;12240;51.142;22.486;2023-04-08T08:24:34;99956.38;;;11.58;100.00
24031;BME280;12240;51.142;22.486;2023-04-08T08:27:02;99956.53;;;11.57;100.00
24031;BME280;12240;51.142;22.486;2023-04-08T08:29:33;99961.31;;;11.53;100.00
24031;BME280;12240;51.142;22.486;2023-04-08T08:32:01;99962.41;;;11.70;100.00
24031;BME280;12240;51.142;22.486;2023-04-08T08:34:30;99958.34;;;12.03;100.00
24031;BME280;12240;51.142;22.486;2023-04-08T08:36:59;99959.84;;;12.15;100.00
24031;BME280;12240;51.142;22.486;2023-04-08T08:39:27;99951.81;;;12.15;100.00
24031;BME280;12240;51.142;22.486;2023-04-08T08:41:55;99957.78;;;12.53;100.00
24031;BME280;12240;51.142;22.486;2023-04-08T08:44:24;99958.31;;;12.12;100.00
24031;BME280;12240;51.142;22.486;2023-04-08T08:46:52;99962.03;;;11.92;100.00
24031;BME280;12240;51.142;22.486;2023-04-08T08:49:21;99967.44;;;11.73;100.00
24031;BME280;12240;51.142;22.486;2023-04-08T08:51:51;99974.09;;;12.33;100.00
24031;BME280;12240;51.142;22.486;2023-04-08T08:54:22;99963.81;;;12.73;100.00
24031;BME280;12240;51.142;22.486;2023-04-08T08:56:49;99963.53;;;12.93;100.00
24031;BME280;12240;51.142;22.486;2023-04-08T08:59:18;99962.25;;;12.35;100.00
24031;BME280;12240;51.142;22.486;2023-04-08T09:01:46;99963.44;;;11.96;100.00
24031;BME280;12240;51.142;22.486;2023-04-08T09:04:16;99968.63;;;11.98;100.00
24031;BME280;12240;51.142;22.486;2023-04-08T09:07:08;99970.56;;;12.05;100.00
24031;BME280;12240;51.142;22.486;2023-04-08T09:09:57;99963.47;;;12.41;100.00
24031;BME280;12240;51.142;22.486;2023-04-08T09:12:26;99973.28;;;12.85;100.00
24031;BME280;12240;51.142;22.486;2023-04-08T09:15:06;99968.78;;;12.68;100.00
24031;BME280;12240;51.142;22.486;2023-04-08T09:17:39;99966.44;;;13.00;100.00
24031;BME280;12240;51.142;22.486;2023-04-08T09:20:12;99955.50;;;12.93;100.00
24031;BME280;12240;51.142;22.486;2023-04-08T09:23:01;99969.44;;;12.79;100.00
24031;BME280;12240;51.142;22.486;2023-04-08T09:25:32;99966.22;;;13.11;100.00
24031;BME280;12240;51.142;22.486;2023-04-08T09:28:00;99974.09;;;13.56;100.00
24031;BME280;12240;51.142;22.486;2023-04-08T09:30:31;99972.22;;;14.41;100.00
24031;BME280;12240;51.142;22.486;2023-04-08T09:32:59;99967.25;;;14.46;100.00
24031;BME280;12240;51.142;22.486;2023-04-08T09:35:28;99970.22;;;14.35;100.00
24031;BME280;12240;51.142;22.486;2023-04-08T09:37:57;99959.13;;;14.30;100.00
24031;BME280;12240;51.142;22.486;2023-04-08T09:40:32;99962.75;;;14.21;100.00
24031;BME280;12240;51.142;22.486;2023-04-08T09:43:04;99962.13;;;13.68;100.00
24031;BME280;12240;51.142;22.486;2023-04-08T09:45:35;99964.78;;;13.60;100.00
24031;BME280;12240;51.142;22.486;2023-04-08T09:48:21;99968.91;;;13.11;100.00
24031;BME280;12240;51.142;22.486;2023-04-08T09:50:52;99975.69;;;13.06;100.00
24031;BME280;12240;51.142;22.486;2023-04-08T09:53:32;99969.53;;;13.05;100.00
24031;BME280;12240;51.142;22.486;2023-04-08T09:56:07;99983.16;;;12.84;100.00
24031;BME280;12240;51.142;22.486;2023-04-08T09:59:01;99971.78;;;13.00;100.00
24031;BME280;12240;51.142;22.486;2023-04-08T10:01:38;99971.34;;;13.22;100.00
24031;BME280;12240;51.142;22.486;2023-04-08T10:04:13;99969.50;;;13.23;100.00
24031;BME280;12240;51.142;22.486;2023-04-08T10:06:42;99964.97;;;13.41;100.00
24031;BME280;12240;51.142;22.486;2023-04-08T10:09:11;99970.94;;;13.60;100.00
24031;BME280;12240;51.142;22.486;2023-04-08T10:11:39;99972.13;;;13.91;100.00
24031;BME280;12240;51.142;22.486;2023-04-08T10:14:08;99963.75;;;13.86;100.00
24031;BME280;12240;51.142;22.486;2023-04-08T10:16:39;99962.06;;;13.85;100.00
24031;BME280;12240;51.142;22.486;2023-04-08T10:19:39;99966.19;;;14.05;100.00
24031;BME280;12240;51.142;22.486;2023-04-08T10:22:47;99966.53;;;13.77;100.00
24031;BME280;12240;51.142;22.486;2023-04-08T10:27:44;99956.06;;;14.25;100.00
24031;BME280;12240;51.142;22.486;2023-04-08T10:32:59;99939.66;;;13.86;100.00
24031;BME280;12240;51.142;22.486;2023-04-08T10:35:33;99930.75;;;13.78;100.00
24031;BME280;12240;51.142;22.486;2023-04-08T10:38:02;99943.06;;;13.71;100.00
24031;BME280;12240;51.142;22.486;2023-04-08T10:40:39;99944.25;;;14.02;100.00
24031;BME280;12240;51.142;22.486;2023-04-08T10:43:11;99936.19;;;13.94;100.00
24031;BME280;12240;51.142;22.486;2023-04-08T10:45:40;99932.16;;;13.64;100.00
24031;BME280;12240;51.142;22.486;2023-04-08T10:50:41;99933.81;;;15.23;100.00
24031;BME280;12240;51.142;22.486;2023-04-08T10:53:09;99927.88;;;15.83;100.00
24031;BME280;12240;51.142;22.486;2023-04-08T10:55:38;99919.56;;;15.46;100.00
24031;BME280;12240;51.142;22.486;2023-04-08T10:58:08;99915.53;;;14.86;100.00
24031;BME280;12240;51.142;22.486;2023-04-08T11:00:39;99912.00;;;15.34;100.00
24031;BME280;12240;51.142;22.486;2023-04-08T11:03:09;99912.94;;;15.89;100.00
24031;BME280;12240;51.142;22.486;2023-04-08T11:05:42;99913.75;;;15.89;100.00
24031;BME280;12240;51.142;22.486;2023-04-08T11:08:10;99909.00;;;14.88;100.00
24031;BME280;12240;51.142;22.486;2023-04-08T11:10:38;99915.22;;;14.89;100.00
24031;BME280;12240;51.142;22.486;2023-04-08T11:13:07;99902.44;;;14.59;100.00
24031;BME280;12240;51.142;22.486;2023-04-08T11:15:40;99908.00;;;14.89;100.00
24031;BME280;12240;51.142;22.486;2023-04-08T11:18:10;99904.66;;;15.03;100.00
24031;BME280;12240;51.142;22.486;2023-04-08T11:20:39;99902.97;;;15.51;100.00
24031;BME280;12240;51.142;22.486;2023-04-08T11:23:13;99897.50;;;15.83;100.00
24031;BME280;12240;51.142;22.486;2023-04-08T11:25:44;99900.81;;;15.93;100.00
24031;BME280;12240;51.142;22.486;2023-04-08T11:28:14;99895.94;;;15.96;100.00
24031;BME280;12240;51.142;22.486;2023-04-08T11:30:42;99899.78;;;16.02;100.00
24031;BME280;12240;51.142;22.486;2023-04-08T11:33:12;99903.81;;;15.98;100.00
24031;BME280;12240;51.142;22.486;2023-04-08T11:35:42;99898.41;;;16.06;100.00
24031;BME280;12240;51.142;22.486;2023-04-08T11:38:11;99898.13;;;15.93;100.00
24031;BME280;12240;51.142;22.486;2023-04-08T11:40:39;99897.47;;;16.29;100.00
24031;BME280;12240;51.142;22.486;2023-04-08T11:43:19;99898.44;;;15.98;100.00
24031;BME280;12240;51.142;22.486;2023-04-08T11:45:48;99897.53;;;16.52;100.00
24031;BME280;12240;51.142;22.486;2023-04-08T11:48:17;99893.28;;;16.80;100.00
24031;BME280;12240;51.142;22.486;2023-04-08T11:50:45;99891.31;;;16.74;100.00
24031;BME280;12240;51.142;22.486;2023-04-08T11:53:39;99899.09;;;16.69;100.00
24031;BME280;12240;51.142;22.486;2023-04-08T11:56:22;99897.38;;;16.76;100.00
24031;BME280;12240;51.142;22.486;2023-04-08T11:58:51;99901.22;;;15.74;100.00
24031;BME280;12240;51.142;22.486;2023-04-08T12:01:20;99904.88;;;15.89;100.00
24031;BME280;12240;51.142;22.486;2023-04-08T12:03:56;99903.78;;;16.06;100.00
24031;BME280;12240;51.142;22.486;2023-04-08T12:06:27;99887.19;;;16.33;100.00
24031;BME280;12240;51.142;22.486;2023-04-08T12:08:56;99898.66;;;15.88;100.00
24031;BME280;12240;51.142;22.486;2023-04-08T12:11:24;99898.09;;;16.01;100.00
24031;BME280;12240;51.142;22.486;2023-04-08T12:13:53;99891.19;;;16.06;100.00
24031;BME280;12240;51.142;22.486;2023-04-08T12:16:21;99875.31;;;15.10;99.38
24031;BME280;12240;51.142;22.486;2023-04-08T12:18:50;99868.28;;;14.77;99.18
24031;BME280;12240;51.142;22.486;2023-04-08T12:21:19;99872.13;;;14.74;100.00
24031;BME280;12240;51.142;22.486;2023-04-08T12:23:47;99880.16;;;15.23;100.00
24031;BME280;12240;51.142;22.486;2023-04-08T12:26:16;99881.41;;;15.67;100.00
24031;BME280;12240;51.142;22.486;2023-04-08T12:28:45;99865.00;;;15.62;100.00
24031;BME280;12240;51.142;22.486;2023-04-08T12:31:14;99859.19;;;15.42;100.00
24031;BME280;12240;51.142;22.486;2023-04-08T12:33:42;99860.38;;;15.32;100.00
24031;BME280;12240;51.142;22.486;2023-04-08T12:36:11;99863.78;;;15.80;100.00
24031;BME280;12240;51.142;22.486;2023-04-08T12:38:40;99856.13;;;15.61;99.64
24031;BME280;12240;51.142;22.486;2023-04-08T12:41:09;99861.22;;;15.40;100.00
24031;BME280;12240;51.142;22.486;2023-04-08T12:43:37;99852.81;;;15.90;100.00
24031;BME280;12240;51.142;22.486;2023-04-08T12:46:06;99850.53;;;15.71;98.35
24031;BME280;12240;51.142;22.486;2023-04-08T12:48:34;99853.66;;;16.21;98.21
24031;BME280;12240;51.142;22.486;2023-04-08T12:51:04;99855.88;;;16.93;100.00
24031;BME280;12240;51.142;22.486;2023-04-08T12:53:33;99841.63;;;16.40;94.20
24031;BME280;12240;51.142;22.486;2023-04-08T12:56:01;99855.75;;;16.03;94.41
24031;BME280;12240;51.142;22.486;2023-04-08T12:58:30;99853.72;;;15.74;96.01
24031;BME280;12240;51.142;22.486;2023-04-08T13:00:59;99868.84;;;15.67;98.81
24031;BME280;12240;51.142;22.486;2023-04-08T13:03:28;99860.16;;;15.57;98.92
24031;BME280;12240;51.142;22.486;2023-04-08T13:05:59;99866.75;;;15.14;100.00
24031;BME280;12240;51.142;22.486;2023-04-08T13:08:28;99860.06;;;14.86;100.00
24031;BME280;12240;51.142;22.486;2023-04-08T13:10:56;99869.63;;;14.65;100.00
24031;BME280;12240;51.142;22.486;2023-04-08T13:13:25;99870.44;;;14.57;100.00